sensor_id;sensor_type;location;lat;lon;timestamp;P1;durP1;ratioP1;P2;durP2;ratioP2
62588;SDS011;58504;48.770;9.148;2023-04-24T00:01:13;0.77;;;0.77;;
62588;SDS011;58504;48.770;9.148;2023-04-24T00:03:42;2.17;;;0.98;;
62588;SDS011;58504;48.770;9.148;2023-04-24T00:06:09;1.10;;;0.80;;
62588;SDS011;58504;48.770;9.148;2023-04-24T00:08:35;1.02;;;0.63;;
62588;SDS011;58504;48.770;9.148;2023-04-24T00:11:03;0.63;;;0.63;;
62588;SDS011;58504;48.770;9.148;2023-04-24T00:13:30;0.57;;;0.57;;
62588;SDS011;58504;48.770;9.148;2023-04-24T00:15:57;0.60;;;0.60;;
62588;SDS011;58504;48.770;9.148;2023-04-24T00:18:24;0.60;;;0.60;;
62588;SDS011;58504;48.770;9.148;2023-04-24T00:20:50;0.65;;;0.65;;
62588;SDS011;58504;48.770;9.148;2023-04-24T00:23:18;0.70;;;0.70;;
62588;SDS011;58504;48.770;9.148;2023-04-24T00:25:45;1.15;;;0.82;;
62588;SDS011;58504;48.770;9.148;2023-04-24T00:28:13;1.77;;;1.02;;
62588;SDS011;58504;48.770;9.148;2023-04-24T00:30:40;1.60;;;0.80;;
62588;SDS011;58504;48.770;9.148;2023-04-24T00:33:07;0.30;;;0.30;;
62588;SDS011;58504;48.770;9.148;2023-04-24T00:35:34;0.93;;;0.85;;
62588;SDS011;58504;48.770;9.148;2023-04-24T00:38:00;0.93;;;0.68;;
62588;SDS011;58504;48.770;9.148;2023-04-24T00:40:27;0.88;;;0.68;;
62588;SDS011;58504;48.770;9.148;2023-04-24T00:42:55;0.60;;;0.60;;
62588;SDS011;58504;48.770;9.148;2023-04-24T00:45:23;0.50;;;0.50;;
62588;SDS011;58504;48.770;9.148;2023-04-24T00:47:50;0.90;;;0.55;;
62588;SDS011;58504;48.770;9.148;2023-04-24T00:50:18;0.57;;;0.57;;
62588;SDS011;58504;48.770;9.148;2023-04-24T00:52:47;0.50;;;0.50;;
62588;SDS011;58504;48.770;9.148;2023-04-24T00:55:14;1.23;;;0.50;;
62588;SDS011;58504;48.770;9.148;2023-04-24T00:57:41;0.60;;;0.60;;
62588;SDS011;58504;48.770;9.148;2023-04-24T01:00:08;0.80;;;0.80;;
62588;SDS011;58504;48.770;9.148;2023-04-24T01:02:38;0.90;;;0.60;;
62588;SDS011;58504;48.770;9.148;2023-04-24T01:05:09;0.60;;;0.60;;
62588;SDS011;58504;48.770;9.148;2023-04-24T01:07:37;0.52;;;0.52;;
62588;SDS011;58504;48.770;9.148;2023-04-24T01:10:05;0.35;;;0.35;;
62588;SDS011;58504;48.770;9.148;2023-04-24T01:12:33;0.93;;;0.60;;
62588;SDS011;58504;48.770;9.148;2023-04-24T01:15:00;0.50;;;0.50;;
62588;SDS011;58504;48.770;9.148;2023-04-24T01:17:28;0.50;;;0.50;;
62588;SDS011;58504;48.770;9.148;2023-04-24T01:19:57;0.57;;;0.57;;
62588;SDS011;58504;48.770;9.148;2023-04-24T01:22:26;0.40;;;0.40;;
62588;SDS011;58504;48.770;9.148;2023-04-24T01:24:53;1.00;;;0.80;;
62588;SDS011;58504;48.770;9.148;2023-04-24T01:27:20;0.70;;;0.70;;
62588;SDS011;58504;48.770;9.148;2023-04-24T01:29:46;1.38;;;0.68;;
62588;SDS011;58504;48.770;9.148;2023-04-24T01:32:14;0.40;;;0.40;;
62588;SDS011;58504;48.770;9.148;2023-04-24T01:34:41;1.60;;;0.63;;
62588;SDS011;58504;48.770;9.148;2023-04-24T01:37:09;1.05;;;0.68;;
62588;SDS011;58504;48.770;9.148;2023-04-24T01:39:37;0.80;;;0.80;;
62588;SDS011;58504;48.770;9.148;2023-04-24T01:42:04;0.47;;;0.47;;
62588;SDS011;58504;48.770;9.148;2023-04-24T01:44:32;0.50;;;0.50;;
62588;SDS011;58504;48.770;9.148;2023-04-24T01:47:00;0.63;;;0.63;;
62588;SDS011;58504;48.770;9.148;2023-04-24T01:49:27;1.13;;;0.80;;
62588;SDS011;58504;48.770;9.148;2023-04-24T01:51:53;0.63;;;0.50;;
62588;SDS011;58504;48.770;9.148;2023-04-24T01:54:20;0.40;;;0.40;;
62588;SDS011;58504;48.770;9.148;2023-04-24T01:56:48;0.55;;;0.50;;
62588;SDS011;58504;48.770;9.148;2023-04-24T01:59:16;0.80;;;0.80;;
62588;SDS011;58504;48.770;9.148;2023-04-24T02:01:43;0.60;;;0.60;;
62588;SDS011;58504;48.770;9.148;2023-04-24T02:04:10;0.68;;;0.57;;
62588;SDS011;58504;48.770;9.148;2023-04-24T02:06:37;0.50;;;0.50;;
62588;SDS011;58504;48.770;9.148;2023-04-24T02:09:04;1.17;;;0.50;;
62588;SDS011;58504;48.770;9.148;2023-04-24T02:11:30;0.40;;;0.40;;
62588;SDS011;58504;48.770;9.148;2023-04-24T02:13:58;0.60;;;0.60;;
62588;SDS011;58504;48.770;9.148;2023-04-24T02:16:25;0.50;;;0.50;;
62588;SDS011;58504;48.770;9.148;2023-04-24T02:18:52;0.85;;;0.60;;
62588;SDS011;58504;48.770;9.148;2023-04-24T02:21:19;0.52;;;0.52;;
62588;SDS011;58504;48.770;9.148;2023-04-24T02:23:45;0.55;;;0.55;;
62588;SDS011;58504;48.770;9.148;2023-04-24T02:26:12;0.40;;;0.40;;
62588;SDS011;58504;48.770;9.148;2023-04-24T02:28:40;0.52;;;0.45;;
62588;SDS011;58504;48.770;9.148;2023-04-24T02:31:08;0.40;;;0.40;;
62588;SDS011;58504;48.770;9.148;2023-04-24T02:33:34;0.28;;;0.28;;
62588;SDS011;58504;48.770;9.148;2023-04-24T02:36:01;1.30;;;0.60;;
62588;SDS011;58504;48.770;9.148;2023-04-24T02:38:28;0.50;;;0.50;;
62588;SDS011;58504;48.770;9.148;2023-04-24T02:40:55;0.93;;;0.50;;
62588;SDS011;58504;48.770;9.148;2023-04-24T02:43:22;0.60;;;0.50;;
62588;SDS011;58504;48.770;9.148;2023-04-24T02:45:49;0.50;;;0.45;;
62588;SDS011;58504;48.770;9.148;2023-04-24T02:48:17;0.50;;;0.50;;
62588;SDS011;58504;48.770;9.148;2023-04-24T02:50:45;0.30;;;0.30;;
62588;SDS011;58504;48.770;9.148;2023-04-24T02:53:12;0.57;;;0.50;;
62588;SDS011;58504;48.770;9.148;2023-04-24T02:55:39;1.10;;;0.40;;
62588;SDS011;58504;48.770;9.148;2023-04-24T02:58:06;0.60;;;0.60;;
62588;SDS011;58504;48.770;9.148;2023-04-24T03:00:33;0.50;;;0.47;;
62588;SDS011;58504;48.770;9.148;2023-04-24T03:03:00;0.52;;;0.52;;
62588;SDS011;58504;48.770;9.148;2023-04-24T03:05:29;0.40;;;0.40;;
62588;SDS011;58504;48.770;9.148;2023-04-24T03:07:56;0.50;;;0.50;;
62588;SDS011;58504;48.770;9.148;2023-04-24T03:10:23;0.60;;;0.60;;
62588;SDS011;58504;48.770;9.148;2023-04-24T03:12:50;0.30;;;0.30;;
62588;SDS011;58504;48.770;9.148;2023-04-24T03:15:17;0.40;;;0.40;;
62588;SDS011;58504;48.770;9.148;2023-04-24T03:17:44;0.75;;;0.40;;
62588;SDS011;58504;48.770;9.148;2023-04-24T03:20:10;0.55;;;0.40;;
62588;SDS011;58504;48.770;9.148;2023-04-24T03:22:39;0.40;;;0.40;;
62588;SDS011;58504;48.770;9.148;2023-04-24T03:25:06;0.50;;;0.50;;
62588;SDS011;58504;48.770;9.148;2023-04-24T03:27:34;0.55;;;0.55;;
62588;SDS011;58504;48.770;9.148;2023-04-24T03:30:01;0.30;;;0.30;;
62588;SDS011;58504;48.770;9.148;2023-04-24T03:32:28;0.30;;;0.30;;
62588;SDS011;58504;48.770;9.148;2023-04-24T03:34:54;0.38;;;0.30;;
62588;SDS011;58504;48.770;9.148;2023-04-24T03:37:21;0.20;;;0.20;;
62588;SDS011;58504;48.770;9.148;2023-04-24T03:39:49;0.43;;;0.43;;
62588;SDS011;58504;48.770;9.148;2023-04-24T03:42:16;0.52;;;0.52;;
62588;SDS011;58504;48.770;9.148;2023-04-24T03:44:42;0.40;;;0.40;;
62588;SDS011;58504;48.770;9.148;2023-04-24T03:47:09;0.32;;;0.32;;
62588;SDS011;58504;48.770;9.148;2023-04-24T03:49:36;0.70;;;0.40;;
62588;SDS011;58504;48.770;9.148;2023-04-24T03:52:02;0.50;;;0.50;;
62588;SDS011;58504;48.770;9.148;2023-04-24T03:54:29;0.70;;;0.70;;
62588;SDS011;58504;48.770;9.148;2023-04-24T03:56:57;0.52;;;0.52;;
62588;SDS011;58504;48.770;9.148;2023-04-24T03:59:25;0.40;;;0.40;;
62588;SDS011;58504;48.770;9.148;2023-04-24T04:01:51;0.30;;;0.30;;
62588;SDS011;58504;48.770;9.148;2023-04-24T04:04:18;0.45;;;0.45;;
62588;SDS011;58504;48.770;9.148;2023-04-24T04:06:45;0.40;;;0.40;;
62588;SDS011;58504;48.770;9.148;2023-04-24T04:09:12;0.52;;;0.52;;
62588;SDS011;58504;48.770;9.148;2023-04-24T04:11:39;0.30;;;0.30;;
62588;SDS011;58504;48.770;9.148;2023-04-24T04:14:07;0.35;;;0.35;;
62588;SDS011;58504;48.770;9.148;2023-04-24T04:16:34;0.30;;;0.30;;
62588;SDS011;58504;48.770;9.148;2023-04-24T04:19:02;0.43;;;0.43;;
62588;SDS011;58504;48.770;9.148;2023-04-24T04:21:28;0.40;;;0.40;;
62588;SDS011;58504;48.770;9.148;2023-04-24T04:23:56;0.73;;;0.50;;
62588;SDS011;58504;48.770;9.148;2023-04-24T04:26:23;0.25;;;0.25;;
62588;SDS011;58504;48.770;9.148;2023-04-24T04:28:50;0.43;;;0.40;;
62588;SDS011;58504;48.770;9.148;2023-04-24T04:31:18;0.30;;;0.30;;
62588;SDS011;58504;48.770;9.148;2023-04-24T04:33:45;0.28;;;0.28;;
62588;SDS011;58504;48.770;9.148;2023-04-24T04:36:12;0.30;;;0.30;;
62588;SDS011;58504;48.770;9.148;2023-04-24T04:38:39;0.30;;;0.30;;
62588;SDS011;58504;48.770;9.148;2023-04-24T04:41:08;0.35;;;0.35;;
62588;SDS011;58504;48.770;9.148;2023-04-24T04:43:34;0.20;;;0.20;;
62588;SDS011;58504;48.770;9.148;2023-04-24T04:46:01;0.28;;;0.28;;
62588;SDS011;58504;48.770;9.148;2023-04-24T04:48:30;0.30;;;0.30;;
62588;SDS011;58504;48.770;9.148;2023-04-24T04:50:57;0.38;;;0.30;;
62588;SDS011;58504;48.770;9.148;2023-04-24T04:53:24;0.20;;;0.20;;
62588;SDS011;58504;48.770;9.148;2023-04-24T04:55:51;0.20;;;0.20;;
62588;SDS011;58504;48.770;9.148;2023-04-24T04:58:18;0.30;;;0.30;;
62588;SDS011;58504;48.770;9.148;2023-04-24T05:00:44;0.17;;;0.17;;
62588;SDS011;58504;48.770;9.148;2023-04-24T05:03:11;0.30;;;0.30;;
62588;SDS011;58504;48.770;9.148;2023-04-24T05:05:39;0.20;;;0.20;;
62588;SDS011;58504;48.770;9.148;2023-04-24T05:08:06;0.25;;;0.25;;
62588;SDS011;58504;48.770;9.148;2023-04-24T05:10:33;0.25;;;0.25;;
62588;SDS011;58504;48.770;9.148;2023-04-24T05:13:01;0.35;;;0.35;;
62588;SDS011;58504;48.770;9.148;2023-04-24T05:15:28;0.35;;;0.35;;
62588;SDS011;58504;48.770;9.148;2023-04-24T05:17:55;0.25;;;0.25;;
62588;SDS011;58504;48.770;9.148;2023-04-24T05:20:22;0.35;;;0.35;;
62588;SDS011;58504;48.770;9.148;2023-04-24T05:22:50;0.40;;;0.40;;
62588;SDS011;58504;48.770;9.148;2023-04-24T05:25:17;0.22;;;0.22;;
62588;SDS011;58504;48.770;9.148;2023-04-24T05:27:44;1.25;;;0.35;;
62588;SDS011;58504;48.770;9.148;2023-04-24T05:30:11;0.32;;;0.32;;
62588;SDS011;58504;48.770;9.148;2023-04-24T05:32:39;0.20;;;0.20;;
62588;SDS011;58504;48.770;9.148;2023-04-24T05:35:05;0.40;;;0.40;;
62588;SDS011;58504;48.770;9.148;2023-04-24T05:37:33;0.28;;;0.28;;
62588;SDS011;58504;48.770;9.148;2023-04-24T05:40:01;0.40;;;0.40;;
62588;SDS011;58504;48.770;9.148;2023-04-24T05:42:29;0.25;;;0.25;;
62588;SDS011;58504;48.770;9.148;2023-04-24T05:44:56;0.25;;;0.25;;
62588;SDS011;58504;48.770;9.148;2023-04-24T05:47:23;0.10;;;0.10;;
62588;SDS011;58504;48.770;9.148;2023-04-24T05:49:51;0.47;;;0.35;;
62588;SDS011;58504;48.770;9.148;2023-04-24T05:52:18;0.47;;;0.32;;
62588;SDS011;58504;48.770;9.148;2023-04-24T05:54:44;0.20;;;0.20;;
62588;SDS011;58504;48.770;9.148;2023-04-24T05:57:12;0.30;;;0.30;;
62588;SDS011;58504;48.770;9.148;2023-04-24T05:59:40;0.28;;;0.17;;
62588;SDS011;58504;48.770;9.148;2023-04-24T06:02:06;0.30;;;0.30;;
62588;SDS011;58504;48.770;9.148;2023-04-24T06:04:33;1.45;;;0.28;;
62588;SDS011;58504;48.770;9.148;2023-04-24T06:07:00;0.10;;;0.10;;
62588;SDS011;58504;48.770;9.148;2023-04-24T06:09:27;0.20;;;0.20;;
62588;SDS011;58504;48.770;9.148;2023-04-24T06:11:54;0.30;;;0.30;;
62588;SDS011;58504;48.770;9.148;2023-04-24T06:14:22;0.35;;;0.35;;
62588;SDS011;58504;48.770;9.148;2023-04-24T06:16:49;0.10;;;0.10;;
62588;SDS011;58504;48.770;9.148;2023-04-24T06:19:16;0.30;;;0.30;;
62588;SDS011;58504;48.770;9.148;2023-04-24T06:21:43;0.30;;;0.30;;
62588;SDS011;58504;48.770;9.148;2023-04-24T06:24:10;1.00;;;0.30;;
62588;SDS011;58504;48.770;9.148;2023-04-24T06:26:37;1.67;;;0.32;;
62588;SDS011;58504;48.770;9.148;2023-04-24T06:29:03;2.92;;;0.73;;
62588;SDS011;58504;48.770;9.148;2023-04-24T06:31:31;0.50;;;0.50;;
62588;SDS011;58504;48.770;9.148;2023-04-24T06:34:01;0.70;;;0.70;;
62588;SDS011;58504;48.770;9.148;2023-04-24T06:36:28;3.22;;;0.65;;
62588;SDS011;58504;48.770;9.148;2023-04-24T06:38:56;1.08;;;1.08;;
62588;SDS011;58504;48.770;9.148;2023-04-24T06:41:23;0.40;;;0.40;;
62588;SDS011;58504;48.770;9.148;2023-04-24T06:43:50;3.35;;;0.70;;
62588;SDS011;58504;48.770;9.148;2023-04-24T06:46:16;2.67;;;0.70;;
62588;SDS011;58504;48.770;9.148;2023-04-24T06:48:44;0.47;;;0.43;;
62588;SDS011;58504;48.770;9.148;2023-04-24T06:51:11;0.50;;;0.40;;
62588;SDS011;58504;48.770;9.148;2023-04-24T06:53:38;2.67;;;0.40;;
62588;SDS011;58504;48.770;9.148;2023-04-24T06:56:05;0.85;;;0.60;;
62588;SDS011;58504;48.770;9.148;2023-04-24T06:58:31;3.25;;;0.38;;
62588;SDS011;58504;48.770;9.148;2023-04-24T07:00:58;0.40;;;0.40;;
62588;SDS011;58504;48.770;9.148;2023-04-24T07:03:25;0.60;;;0.60;;
62588;SDS011;58504;48.770;9.148;2023-04-24T07:05:53;3.40;;;0.60;;
62588;SDS011;58504;48.770;9.148;2023-04-24T07:08:21;0.68;;;0.55;;
62588;SDS011;58504;48.770;9.148;2023-04-24T07:10:48;3.40;;;0.90;;
62588;SDS011;58504;48.770;9.148;2023-04-24T07:13:15;0.50;;;0.50;;
62588;SDS011;58504;48.770;9.148;2023-04-24T07:15:42;0.50;;;0.43;;
62588;SDS011;58504;48.770;9.148;2023-04-24T07:18:09;2.67;;;0.60;;
62588;SDS011;58504;48.770;9.148;2023-04-24T07:20:36;0.22;;;0.22;;
62588;SDS011;58504;48.770;9.148;2023-04-24T07:23:04;0.90;;;0.50;;
62588;SDS011;58504;48.770;9.148;2023-04-24T07:25:31;0.40;;;0.40;;
62588;SDS011;58504;48.770;9.148;2023-04-24T07:27:57;1.42;;;0.45;;
62588;SDS011;58504;48.770;9.148;2023-04-24T07:30:24;0.68;;;0.65;;
62588;SDS011;58504;48.770;9.148;2023-04-24T07:32:53;0.57;;;0.57;;
62588;SDS011;58504;48.770;9.148;2023-04-24T07:35:20;0.60;;;0.55;;
62588;SDS011;58504;48.770;9.148;2023-04-24T07:37:47;0.68;;;0.68;;
62588;SDS011;58504;48.770;9.148;2023-04-24T07:40:15;1.10;;;0.70;;
62588;SDS011;58504;48.770;9.148;2023-04-24T07:42:42;0.82;;;0.60;;
62588;SDS011;58504;48.770;9.148;2023-04-24T07:45:09;3.25;;;0.60;;
62588;SDS011;58504;48.770;9.148;2023-04-24T07:47:36;4.03;;;0.77;;
62588;SDS011;58504;48.770;9.148;2023-04-24T07:50:05;2.67;;;0.80;;
62588;SDS011;58504;48.770;9.148;2023-04-24T07:52:32;0.40;;;0.40;;
62588;SDS011;58504;48.770;9.148;2023-04-24T07:54:59;1.17;;;0.88;;
62588;SDS011;58504;48.770;9.148;2023-04-24T07:57:28;2.97;;;1.00;;
62588;SDS011;58504;48.770;9.148;2023-04-24T07:59:55;0.85;;;0.68;;
62588;SDS011;58504;48.770;9.148;2023-04-24T08:02:22;1.80;;;1.17;;
62588;SDS011;58504;48.770;9.148;2023-04-24T08:04:51;2.67;;;1.20;;
62588;SDS011;58504;48.770;9.148;2023-04-24T08:07:18;1.58;;;0.98;;
62588;SDS011;58504;48.770;9.148;2023-04-24T08:09:45;1.50;;;1.13;;
62588;SDS011;58504;48.770;9.148;2023-04-24T08:12:12;2.10;;;1.30;;
62588;SDS011;58504;48.770;9.148;2023-04-24T08:14:40;1.83;;;0.80;;
62588;SDS011;58504;48.770;9.148;2023-04-24T08:17:07;4.80;;;1.35;;
62588;SDS011;58504;48.770;9.148;2023-04-24T08:19:34;1.95;;;0.82;;
62588;SDS011;58504;48.770;9.148;2023-04-24T08:22:00;2.03;;;1.30;;
62588;SDS011;58504;48.770;9.148;2023-04-24T08:24:29;3.05;;;1.27;;
62588;SDS011;58504;48.770;9.148;2023-04-24T08:26:55;1.52;;;1.05;;
62588;SDS011;58504;48.770;9.148;2023-04-24T08:29:23;3.05;;;1.23;;
62588;SDS011;58504;48.770;9.148;2023-04-24T08:31:51;4.25;;;1.25;;
62588;SDS011;58504;48.770;9.148;2023-04-24T08:34:19;3.72;;;1.30;;
62588;SDS011;58504;48.770;9.148;2023-04-24T08:36:46;2.22;;;0.90;;
62588;SDS011;58504;48.770;9.148;2023-04-24T08:39:13;4.22;;;1.08;;
62588;SDS011;58504;48.770;9.148;2023-04-24T08:41:41;4.38;;;1.33;;
62588;SDS011;58504;48.770;9.148;2023-04-24T08:44:10;5.35;;;1.52;;
62588;SDS011;58504;48.770;9.148;2023-04-24T08:46:38;6.45;;;1.20;;
62588;SDS011;58504;48.770;9.148;2023-04-24T08:49:07;0.90;;;0.73;;
62588;SDS011;58504;48.770;9.148;2023-04-24T08:51:35;4.40;;;1.10;;
62588;SDS011;58504;48.770;9.148;2023-04-24T08:54:03;2.42;;;0.93;;
62588;SDS011;58504;48.770;9.148;2023-04-24T08:56:32;2.28;;;1.13;;
62588;SDS011;58504;48.770;9.148;2023-04-24T08:59:02;2.67;;;1.15;;
62588;SDS011;58504;48.770;9.148;2023-04-24T09:01:29;2.45;;;1.17;;
62588;SDS011;58504;48.770;9.148;2023-04-24T09:03:59;2.83;;;1.27;;
62588;SDS011;58504;48.770;9.148;2023-04-24T09:06:29;4.20;;;1.38;;
62588;SDS011;58504;48.770;9.148;2023-04-24T09:08:58;1.88;;;1.00;;
62588;SDS011;58504;48.770;9.148;2023-04-24T09:11:27;1.90;;;0.93;;
62588;SDS011;58504;48.770;9.148;2023-04-24T09:13:54;3.30;;;1.70;;
62588;SDS011;58504;48.770;9.148;2023-04-24T09:16:21;1.98;;;1.08;;
62588;SDS011;58504;48.770;9.148;2023-04-24T09:18:49;2.38;;;1.58;;
62588;SDS011;58504;48.770;9.148;2023-04-24T09:21:16;1.15;;;0.75;;
62588;SDS011;58504;48.770;9.148;2023-04-24T09:23:44;2.00;;;1.00;;
62588;SDS011;58504;48.770;9.148;2023-04-24T09:26:10;0.90;;;0.90;;
62588;SDS011;58504;48.770;9.148;2023-04-24T09:28:39;2.25;;;0.77;;
62588;SDS011;58504;48.770;9.148;2023-04-24T09:31:08;1.08;;;0.93;;
62588;SDS011;58504;48.770;9.148;2023-04-24T09:33:36;1.33;;;1.05;;
62588;SDS011;58504;48.770;9.148;2023-04-24T09:36:03;1.98;;;0.90;;
62588;SDS011;58504;48.770;9.148;2023-04-24T09:38:31;1.83;;;0.90;;
62588;SDS011;58504;48.770;9.148;2023-04-24T09:41:04;1.30;;;1.00;;
62588;SDS011;58504;48.770;9.148;2023-04-24T09:43:32;0.75;;;0.57;;
62588;SDS011;58504;48.770;9.148;2023-04-24T09:46:04;0.80;;;0.70;;
62588;SDS011;58504;48.770;9.148;2023-04-24T09:51:00;4.00;;;1.00;;
62588;SDS011;58504;48.770;9.148;2023-04-24T09:53:28;1.75;;;1.02;;
62588;SDS011;58504;48.770;9.148;2023-04-24T09:55:55;3.25;;;1.00;;
62588;SDS011;58504;48.770;9.148;2023-04-24T09:58:29;1.65;;;0.80;;
62588;SDS011;58504;48.770;9.148;2023-04-24T10:00:56;3.22;;;0.90;;
62588;SDS011;58504;48.770;9.148;2023-04-24T10:03:23;1.33;;;0.77;;
62588;SDS011;58504;48.770;9.148;2023-04-24T10:05:52;1.98;;;0.95;;
62588;SDS011;58504;48.770;9.148;2023-04-24T10:08:20;1.42;;;0.63;;
62588;SDS011;58504;48.770;9.148;2023-04-24T10:10:47;0.95;;;0.50;;
62588;SDS011;58504;48.770;9.148;2023-04-24T10:13:14;2.42;;;1.00;;
62588;SDS011;58504;48.770;9.148;2023-04-24T10:15:42;1.65;;;0.85;;
62588;SDS011;58504;48.770;9.148;2023-04-24T10:18:10;3.35;;;0.70;;
62588;SDS011;58504;48.770;9.148;2023-04-24T10:20:38;1.00;;;0.90;;
62588;SDS011;58504;48.770;9.148;2023-04-24T10:23:06;1.98;;;0.68;;
62588;SDS011;58504;48.770;9.148;2023-04-24T10:25:33;3.80;;;0.93;;
62588;SDS011;58504;48.770;9.148;2023-04-24T10:28:02;1.08;;;0.77;;
62588;SDS011;58504;48.770;9.148;2023-04-24T10:30:30;1.30;;;0.63;;
62588;SDS011;58504;48.770;9.148;2023-04-24T10:33:01;0.98;;;0.88;;
62588;SDS011;58504;48.770;9.148;2023-04-24T10:35:30;0.85;;;0.50;;
62588;SDS011;58504;48.770;9.148;2023-04-24T10:37:59;1.15;;;0.77;;
62588;SDS011;58504;48.770;9.148;2023-04-24T10:40:30;2.72;;;1.00;;
62588;SDS011;58504;48.770;9.148;2023-04-24T10:42:58;1.33;;;1.10;;
62588;SDS011;58504;48.770;9.148;2023-04-24T10:45:25;1.75;;;0.80;;
62588;SDS011;58504;48.770;9.148;2023-04-24T10:47:53;2.05;;;0.68;;
62588;SDS011;58504;48.770;9.148;2023-04-24T10:50:24;1.17;;;0.85;;
62588;SDS011;58504;48.770;9.148;2023-04-24T10:52:52;1.08;;;0.82;;
62588;SDS011;58504;48.770;9.148;2023-04-24T10:55:39;0.95;;;0.77;;
62588;SDS011;58504;48.770;9.148;2023-04-24T10:58:07;3.17;;;0.70;;
62588;SDS011;58504;48.770;9.148;2023-04-24T11:00:35;1.70;;;0.95;;
62588;SDS011;58504;48.770;9.148;2023-04-24T11:03:04;0.43;;;0.43;;
62588;SDS011;58504;48.770;9.148;2023-04-24T11:05:52;1.20;;;0.65;;
62588;SDS011;58504;48.770;9.148;2023-04-24T11:08:21;1.48;;;0.60;;
62588;SDS011;58504;48.770;9.148;2023-04-24T11:10:56;0.77;;;0.60;;
62588;SDS011;58504;48.770;9.148;2023-04-24T11:13:31;0.80;;;0.80;;
62588;SDS011;58504;48.770;9.148;2023-04-24T11:16:31;4.07;;;1.23;;
62588;SDS011;58504;48.770;9.148;2023-04-24T11:19:00;0.63;;;0.35;;
62588;SDS011;58504;48.770;9.148;2023-04-24T11:21:30;3.10;;;1.10;;
62588;SDS011;58504;48.770;9.148;2023-04-24T11:23:58;1.33;;;0.70;;
62588;SDS011;58504;48.770;9.148;2023-04-24T11:26:24;1.15;;;0.70;;
62588;SDS011;58504;48.770;9.148;2023-04-24T11:31:40;0.57;;;0.57;;
62588;SDS011;58504;48.770;9.148;2023-04-24T11:34:07;2.05;;;0.73;;
62588;SDS011;58504;48.770;9.148;2023-04-24T11:36:35;2.08;;;0.82;;
62588;SDS011;58504;48.770;9.148;2023-04-24T11:39:02;1.30;;;0.75;;
62588;SDS011;58504;48.770;9.148;2023-04-24T11:41:30;7.80;;;1.25;;
62588;SDS011;58504;48.770;9.148;2023-04-24T11:43:57;1.92;;;0.60;;
62588;SDS011;58504;48.770;9.148;2023-04-24T11:46:26;0.65;;;0.65;;
62588;SDS011;58504;48.770;9.148;2023-04-24T11:48:56;1.33;;;0.77;;
62588;SDS011;58504;48.770;9.148;2023-04-24T11:51:23;1.95;;;0.55;;
62588;SDS011;58504;48.770;9.148;2023-04-24T11:53:51;2.72;;;0.90;;
62588;SDS011;58504;48.770;9.148;2023-04-24T11:56:19;0.52;;;0.40;;
62588;SDS011;58504;48.770;9.148;2023-04-24T11:58:47;1.35;;;0.70;;
62588;SDS011;58504;48.770;9.148;2023-04-24T12:01:14;1.33;;;1.00;;
62588;SDS011;58504;48.770;9.148;2023-04-24T12:03:41;2.30;;;0.70;;
62588;SDS011;58504;48.770;9.148;2023-04-24T12:06:13;1.20;;;0.80;;
62588;SDS011;58504;48.770;9.148;2023-04-24T12:08:39;1.08;;;0.50;;
62588;SDS011;58504;48.770;9.148;2023-04-24T12:11:06;0.60;;;0.60;;
62588;SDS011;58504;48.770;9.148;2023-04-24T12:13:34;0.88;;;0.82;;
62588;SDS011;58504;48.770;9.148;2023-04-24T12:16:02;1.55;;;0.73;;
62588;SDS011;58504;48.770;9.148;2023-04-24T12:18:30;1.80;;;1.02;;
62588;SDS011;58504;48.770;9.148;2023-04-24T12:23:43;0.93;;;0.93;;
62588;SDS011;58504;48.770;9.148;2023-04-24T12:26:10;2.67;;;0.93;;
62588;SDS011;58504;48.770;9.148;2023-04-24T12:28:38;1.92;;;0.90;;
62588;SDS011;58504;48.770;9.148;2023-04-24T12:31:06;1.15;;;0.88;;
62588;SDS011;58504;48.770;9.148;2023-04-24T12:33:33;5.43;;;0.90;;
62588;SDS011;58504;48.770;9.148;2023-04-24T12:36:01;2.78;;;1.15;;
62588;SDS011;58504;48.770;9.148;2023-04-24T12:38:29;1.70;;;1.20;;
62588;SDS011;58504;48.770;9.148;2023-04-24T12:41:02;4.43;;;1.15;;
62588;SDS011;58504;48.770;9.148;2023-04-24T12:43:30;0.80;;;0.75;;
62588;SDS011;58504;48.770;9.148;2023-04-24T12:45:57;0.70;;;0.70;;
62588;SDS011;58504;48.770;9.148;2023-04-24T12:48:24;2.40;;;0.90;;
62588;SDS011;58504;48.770;9.148;2023-04-24T12:50:51;1.65;;;0.95;;
62588;SDS011;58504;48.770;9.148;2023-04-24T12:53:18;1.10;;;1.00;;
62588;SDS011;58504;48.770;9.148;2023-04-24T12:55:46;1.40;;;0.85;;
62588;SDS011;58504;48.770;9.148;2023-04-24T12:58:17;1.70;;;1.05;;
62588;SDS011;58504;48.770;9.148;2023-04-24T13:00:45;1.60;;;1.30;;
62588;SDS011;58504;48.770;9.148;2023-04-24T13:03:12;2.25;;;1.17;;
62588;SDS011;58504;48.770;9.148;2023-04-24T13:05:39;1.88;;;0.93;;
62588;SDS011;58504;48.770;9.148;2023-04-24T13:08:06;1.20;;;0.73;;
62588;SDS011;58504;48.770;9.148;2023-04-24T13:10:32;0.75;;;0.70;;
62588;SDS011;58504;48.770;9.148;2023-04-24T13:13:01;1.67;;;0.90;;
62588;SDS011;58504;48.770;9.148;2023-04-24T13:15:28;5.18;;;0.80;;
62588;SDS011;58504;48.770;9.148;2023-04-24T13:17:55;2.25;;;1.00;;
62588;SDS011;58504;48.770;9.148;2023-04-24T13:20:22;3.03;;;0.85;;
62588;SDS011;58504;48.770;9.148;2023-04-24T13:22:49;5.38;;;1.13;;
62588;SDS011;58504;48.770;9.148;2023-04-24T13:25:15;3.08;;;0.77;;
62588;SDS011;58504;48.770;9.148;2023-04-24T13:27:43;2.03;;;1.17;;
62588;SDS011;58504;48.770;9.148;2023-04-24T13:30:12;1.85;;;0.82;;
62588;SDS011;58504;48.770;9.148;2023-04-24T13:32:39;3.40;;;0.98;;
62588;SDS011;58504;48.770;9.148;2023-04-24T13:35:06;1.20;;;0.93;;
62588;SDS011;58504;48.770;9.148;2023-04-24T13:37:33;0.80;;;0.80;;
62588;SDS011;58504;48.770;9.148;2023-04-24T13:40:00;4.25;;;0.90;;
62588;SDS011;58504;48.770;9.148;2023-04-24T13:42:27;2.40;;;0.80;;
62588;SDS011;58504;48.770;9.148;2023-04-24T13:44:53;1.30;;;0.98;;
62588;SDS011;58504;48.770;9.148;2023-04-24T13:47:21;1.48;;;0.70;;
62588;SDS011;58504;48.770;9.148;2023-04-24T13:49:48;3.42;;;0.90;;
62588;SDS011;58504;48.770;9.148;2023-04-24T13:52:15;1.00;;;0.52;;
62588;SDS011;58504;48.770;9.148;2023-04-24T13:54:42;2.65;;;0.98;;
62588;SDS011;58504;48.770;9.148;2023-04-24T13:57:08;3.83;;;0.75;;
62588;SDS011;58504;48.770;9.148;2023-04-24T13:59:35;1.00;;;0.85;;
62588;SDS011;58504;48.770;9.148;2023-04-24T14:02:02;0.73;;;0.60;;
62588;SDS011;58504;48.770;9.148;2023-04-24T14:04:30;0.60;;;0.60;;
62588;SDS011;58504;48.770;9.148;2023-04-24T14:06:57;2.50;;;0.95;;
62588;SDS011;58504;48.770;9.148;2023-04-24T14:09:23;2.50;;;0.73;;
62588;SDS011;58504;48.770;9.148;2023-04-24T14:11:51;1.10;;;1.00;;
62588;SDS011;58504;48.770;9.148;2023-04-24T14:14:18;6.57;;;0.57;;
62588;SDS011;58504;48.770;9.148;2023-04-24T14:16:44;1.35;;;1.10;;
62588;SDS011;58504;48.770;9.148;2023-04-24T14:19:11;2.10;;;0.85;;
62588;SDS011;58504;48.770;9.148;2023-04-24T14:21:39;1.05;;;0.60;;
62588;SDS011;58504;48.770;9.148;2023-04-24T14:24:06;2.22;;;0.80;;
62588;SDS011;58504;48.770;9.148;2023-04-24T14:26:32;0.65;;;0.65;;
62588;SDS011;58504;48.770;9.148;2023-04-24T14:28:59;1.55;;;0.77;;
62588;SDS011;58504;48.770;9.148;2023-04-24T14:31:26;0.90;;;0.90;;
62588;SDS011;58504;48.770;9.148;2023-04-24T14:33:53;0.60;;;0.60;;
62588;SDS011;58504;48.770;9.148;2023-04-24T14:36:20;0.60;;;0.60;;
62588;SDS011;58504;48.770;9.148;2023-04-24T14:38:48;0.60;;;0.60;;
62588;SDS011;58504;48.770;9.148;2023-04-24T14:41:15;2.95;;;0.80;;
62588;SDS011;58504;48.770;9.148;2023-04-24T14:43:42;0.85;;;0.70;;
62588;SDS011;58504;48.770;9.148;2023-04-24T14:46:08;1.55;;;0.95;;
62588;SDS011;58504;48.770;9.148;2023-04-24T14:48:35;1.48;;;0.85;;
62588;SDS011;58504;48.770;9.148;2023-04-24T14:51:02;0.50;;;0.50;;
62588;SDS011;58504;48.770;9.148;2023-04-24T14:53:29;0.88;;;0.60;;
62588;SDS011;58504;48.770;9.148;2023-04-24T14:55:57;0.60;;;0.60;;
62588;SDS011;58504;48.770;9.148;2023-04-24T14:58:23;1.13;;;1.02;;